createdAt,value
2023-02-22T00:02:25.508Z,4.73
2023-02-22T00:04:54.836Z,4.70
2023-02-22T00:07:23.861Z,4.62
2023-02-22T00:09:52.424Z,4.59
2023-02-22T00:12:20.789Z,4.59
2023-02-22T00:14:51.298Z,4.60
2023-02-22T00:17:20.720Z,4.56
2023-02-22T00:19:49.123Z,4.55
2023-02-22T00:22:19.584Z,4.55
2023-02-22T00:24:49.133Z,4.52
2023-02-22T00:27:17.903Z,4.51
2023-02-22T00:29:46.804Z,4.49
2023-02-22T00:32:15.863Z,4.47
2023-02-22T00:34:44.129Z,4.45
2023-02-22T00:37:12.432Z,4.39
2023-02-22T00:39:41.345Z,4.33
2023-02-22T00:42:09.878Z,4.32
2023-02-22T00:44:38.936Z,4.32
2023-02-22T00:47:09.113Z,4.32
2023-02-22T00:49:38.013Z,4.30
2023-02-22T00:52:06.592Z,4.28
2023-02-22T00:54:35.775Z,4.26
2023-02-22T00:57:04.748Z,4.28
2023-02-22T00:59:35.116Z,4.27
2023-02-22T01:02:03.934Z,4.17
2023-02-22T01:04:33.588Z,4.06
2023-02-22T01:07:02.225Z,4.02
2023-02-22T01:09:32.925Z,4.02
2023-02-22T01:12:01.216Z,4.02
2023-02-22T01:14:29.661Z,4.02
2023-02-22T01:16:58.331Z,4.00
2023-02-22T01:19:32.444Z,3.95
2023-02-22T01:22:01.106Z,3.93
2023-02-22T01:24:29.626Z,3.88
2023-02-22T01:26:58.122Z,3.80
2023-02-22T01:29:26.710Z,3.74
2023-02-22T01:31:56.187Z,3.73
2023-02-22T01:34:26.163Z,3.72
2023-02-22T01:36:54.993Z,3.71
2023-02-22T01:39:23.540Z,3.67
2023-02-22T01:41:56.912Z,3.63
2023-02-22T01:44:34.172Z,3.62
2023-02-22T01:47:04.116Z,3.61
2023-02-22T01:49:40.450Z,3.58
2023-02-22T01:52:12.339Z,3.53
2023-02-22T01:54:46.351Z,3.56
2023-02-22T01:57:29.982Z,3.58
2023-02-22T02:00:01.068Z,3.56
2023-02-22T02:02:29.622Z,3.51
2023-02-22T02:04:58.048Z,3.48
2023-02-22T02:07:29.722Z,3.50
2023-02-22T02:10:00.885Z,3.56
2023-02-22T02:12:31.503Z,3.61
2023-02-22T02:15:17.024Z,3.61
2023-02-22T02:17:46.525Z,3.57
2023-02-22T02:20:37.411Z,3.59
2023-02-22T02:23:44.224Z,3.63
2023-02-22T02:26:23.118Z,3.66
2023-02-22T02:28:51.799Z,3.69
2023-02-22T02:31:53.587Z,3.69
2023-02-22T02:34:40.877Z,3.71
2023-02-22T02:37:10.719Z,3.76
2023-02-22T02:40:19.840Z,3.78
2023-02-22T02:43:01.319Z,3.79
2023-02-22T02:45:39.119Z,3.79
2023-02-22T02:48:07.624Z,3.79
2023-02-22T02:50:43.386Z,3.80
2023-02-22T02:53:11.985Z,3.85
2023-02-22T02:55:40.747Z,3.84
2023-02-22T02:58:11.616Z,3.83
2023-02-22T03:00:40.535Z,3.86
2023-02-22T03:03:30.924Z,3.89
2023-02-22T03:06:24.332Z,3.94
2023-02-22T03:09:05.101Z,3.96
2023-02-22T03:12:14.853Z,3.98
2023-02-22T03:15:14.757Z,3.97
2023-02-22T03:17:48.123Z,3.96
2023-02-22T03:20:43.287Z,3.99
2023-02-22T03:23:17.855Z,4.02
2023-02-22T03:26:02.108Z,4.07
2023-02-22T03:28:32.205Z,4.09
2023-02-22T03:31:06.503Z,4.09
2023-02-22T03:33:44.941Z,4.09
2023-02-22T03:36:17.233Z,4.09
2023-02-22T03:38:45.798Z,4.11
2023-02-22T03:41:17.463Z,4.12
2023-02-22T03:43:50.469Z,4.14
2023-02-22T03:46:22.184Z,4.15
2023-02-22T03:49:05.438Z,4.14
2023-02-22T03:51:37.100Z,4.14
2023-02-22T03:54:05.846Z,4.14
2023-02-22T03:56:41.462Z,4.13
2023-02-22T03:59:10.433Z,4.12
2023-02-22T04:01:40.015Z,4.01
2023-02-22T04:04:09.049Z,3.91
2023-02-22T04:06:40.855Z,3.78
2023-02-22T04:09:10.157Z,3.62
2023-02-22T04:11:38.766Z,3.53
2023-02-22T04:14:07.458Z,3.44
2023-02-22T04:16:37.267Z,3.34
2023-02-22T04:19:09.020Z,3.26
2023-02-22T04:21:39.588Z,3.21
2023-02-22T04:24:13.700Z,3.18
2023-02-22T04:26:43.821Z,3.20
2023-02-22T04:29:12.793Z,3.24
2023-02-22T04:31:43.252Z,3.27
2023-02-22T04:34:11.986Z,3.30
2023-02-22T04:36:44.721Z,3.34
2023-02-22T04:39:13.819Z,3.35
2023-02-22T04:41:42.170Z,3.37
2023-02-22T04:44:10.529Z,3.33
2023-02-22T04:46:39.016Z,3.20
2023-02-22T04:49:10.519Z,3.09
2023-02-22T04:51:41.732Z,3.02
2023-02-22T04:54:18.882Z,2.94
2023-02-22T04:56:48.917Z,2.86
2023-02-22T04:59:23.737Z,2.83
2023-02-22T05:01:58.849Z,2.81
2023-02-22T05:04:27.845Z,2.77
2023-02-22T05:06:56.356Z,2.74
2023-02-22T05:09:24.778Z,2.67
2023-02-22T05:11:54.533Z,2.59
2023-02-22T05:14:26.853Z,2.54
2023-02-22T05:16:56.894Z,2.50
2023-02-22T05:19:25.271Z,2.48
2023-02-22T05:21:53.638Z,2.41
2023-02-22T05:24:22.520Z,2.33
2023-02-22T05:26:53.809Z,2.31
2023-02-22T05:29:23.178Z,2.34
2023-02-22T05:31:51.527Z,2.36
2023-02-22T05:34:20.436Z,2.37
2023-02-22T05:36:49.151Z,2.30
2023-02-22T05:39:19.469Z,2.19
2023-02-22T05:41:48.566Z,2.14
2023-02-22T05:44:17.277Z,2.09
2023-02-22T05:46:45.551Z,2.06
2023-02-22T05:49:14.015Z,2.11
2023-02-22T05:51:42.347Z,2.16
2023-02-22T05:54:10.699Z,2.18
2023-02-22T05:56:40.218Z,2.21
2023-02-22T05:59:08.773Z,2.17
2023-02-22T06:01:38.372Z,2.07
2023-02-22T06:04:06.936Z,2.00
2023-02-22T06:06:35.525Z,2.00
2023-02-22T06:09:04.343Z,2.00
2023-02-22T06:11:32.904Z,2.00
2023-02-22T06:14:08.437Z,1.95
2023-02-22T06:16:36.782Z,1.92
2023-02-22T06:19:05.665Z,1.92
2023-02-22T06:21:34.723Z,1.88
2023-02-22T06:24:04.534Z,1.81
2023-02-22T06:26:33.107Z,1.70
2023-02-22T06:29:02.185Z,1.59
2023-02-22T06:31:31.974Z,1.52
2023-02-22T06:34:01.411Z,1.50
2023-02-22T06:36:35.072Z,1.54
2023-02-22T06:39:04.130Z,1.58
2023-02-22T06:41:32.827Z,1.61
2023-02-22T06:44:01.228Z,1.69
2023-02-22T06:46:30.989Z,1.78
2023-02-22T06:48:59.890Z,1.82
2023-02-22T06:51:29.196Z,1.86
2023-02-22T06:53:59.768Z,1.92
2023-02-22T06:56:28.668Z,2.00
2023-02-22T06:58:58.320Z,2.06
2023-02-22T07:01:26.635Z,2.06
2023-02-22T07:03:59.997Z,2.10
2023-02-22T07:06:28.458Z,2.21
2023-02-22T07:08:58.568Z,2.34
2023-02-22T07:11:26.791Z,2.46
2023-02-22T07:13:55.957Z,2.51
2023-02-22T07:16:24.543Z,2.48
2023-02-22T07:18:52.943Z,2.42
2023-02-22T07:21:22.144Z,2.25
2023-02-22T07:23:52.371Z,2.17
2023-02-22T07:26:22.172Z,2.20
2023-02-22T07:28:50.403Z,2.24
2023-02-22T07:31:18.867Z,2.27
2023-02-22T07:33:47.622Z,2.27
2023-02-22T07:36:18.068Z,2.31
2023-02-22T07:38:47.102Z,2.40
2023-02-22T07:41:15.456Z,2.52
2023-02-22T07:43:50.834Z,2.57
2023-02-22T07:46:19.453Z,2.55
2023-02-22T07:48:47.547Z,2.52
2023-02-22T07:51:17.020Z,2.52
2023-02-22T07:53:45.443Z,2.60
2023-02-22T07:56:13.930Z,2.71
2023-02-22T07:58:42.254Z,2.81
2023-02-22T08:01:14.447Z,2.85
2023-02-22T08:03:43.626Z,2.85
2023-02-22T08:06:12.197Z,2.85
2023-02-22T08:08:40.729Z,2.85
2023-02-22T08:11:09.269Z,2.85
2023-02-22T08:13:38.686Z,2.92
2023-02-22T08:16:07.560Z,3.06
2023-02-22T08:18:38.508Z,3.15
2023-02-22T08:21:07.686Z,3.21
2023-02-22T08:23:36.020Z,3.25
2023-02-22T08:26:07.998Z,3.28
2023-02-22T08:28:38.811Z,3.27
2023-02-22T08:31:08.990Z,3.26
2023-02-22T08:33:37.888Z,3.23
2023-02-22T08:36:06.466Z,3.24
2023-02-22T08:38:37.870Z,3.29
2023-02-22T08:41:07.042Z,3.33
2023-02-22T08:43:35.388Z,3.37
2023-02-22T08:46:04.155Z,3.44
2023-02-22T08:48:32.696Z,3.46
2023-02-22T08:51:01.705Z,3.51
2023-02-22T08:53:32.490Z,3.58
2023-02-22T08:56:01.275Z,3.67
2023-02-22T08:58:30.071Z,3.72
2023-02-22T09:01:00.428Z,3.78
2023-02-22T09:03:28.736Z,3.82
2023-02-22T09:05:59.685Z,3.79
2023-02-22T09:08:27.911Z,3.68
2023-02-22T09:10:56.484Z,3.59
2023-02-22T09:13:25.549Z,3.58
2023-02-22T09:15:53.684Z,3.55
2023-02-22T09:18:22.396Z,3.44
2023-02-22T09:20:52.289Z,3.40
2023-02-22T09:23:24.133Z,3.36
2023-02-22T09:25:52.490Z,3.35
2023-02-22T09:28:20.996Z,3.32
2023-02-22T09:30:49.306Z,3.28
2023-02-22T09:33:21.450Z,3.33
2023-02-22T09:35:50.176Z,3.45
2023-02-22T09:38:23.316Z,3.55
2023-02-22T09:41:06.401Z,3.64
2023-02-22T09:43:56.667Z,3.75
2023-02-22T09:46:30.622Z,3.80
2023-02-22T09:49:01.753Z,3.80
2023-02-22T09:51:35.891Z,3.66
2023-02-22T09:54:04.740Z,3.55
2023-02-22T09:56:34.006Z,3.50
2023-02-22T09:59:04.223Z,3.38
2023-02-22T10:01:36.583Z,3.30
2023-02-22T10:04:30.480Z,3.29
2023-02-22T10:07:06.253Z,3.33
2023-02-22T10:09:37.885Z,3.37
2023-02-22T10:12:09.463Z,3.39
2023-02-22T10:14:43.601Z,3.45
2023-02-22T10:17:24.652Z,3.47
2023-02-22T10:20:01.951Z,3.46
2023-02-22T10:22:33.676Z,3.39
2023-02-22T10:25:32.945Z,3.34
2023-02-22T10:28:24.411Z,3.30
2023-02-22T10:30:57.502Z,3.32
2023-02-22T10:33:32.126Z,3.32
2023-02-22T10:36:03.361Z,3.28
2023-02-22T10:38:34.966Z,3.21
2023-02-22T10:41:03.072Z,3.12
2023-02-22T10:43:33.541Z,3.05
2023-02-22T10:46:02.870Z,3.03
2023-02-22T10:48:31.790Z,3.07
2023-02-22T10:51:02.127Z,3.10
2023-02-22T10:53:31.055Z,3.17
2023-02-22T10:56:06.284Z,3.21
2023-02-22T10:58:41.028Z,3.26
2023-02-22T11:01:24.623Z,3.29
2023-02-22T11:03:57.243Z,3.28
2023-02-22T11:06:25.708Z,3.23
2023-02-22T11:09:03.878Z,3.14
2023-02-22T11:11:34.197Z,3.09
2023-02-22T11:14:03.353Z,3.08
2023-02-22T11:16:31.630Z,3.07
2023-02-22T11:19:06.191Z,3.05
2023-02-22T11:21:34.496Z,3.01
2023-02-22T11:24:10.124Z,3.04
2023-02-22T11:26:49.276Z,3.07
2023-02-22T11:29:26.759Z,3.11
2023-02-22T11:31:55.357Z,3.14
2023-02-22T11:34:37.291Z,3.17
2023-02-22T11:37:38.088Z,3.21
2023-02-22T11:40:07.388Z,3.17
2023-02-22T11:42:36.227Z,3.14
2023-02-22T11:45:09.503Z,3.13
2023-02-22T11:47:59.082Z,3.14
2023-02-22T11:50:31.436Z,3.11
2023-02-22T11:53:01.715Z,3.08
2023-02-22T11:55:42.906Z,3.04
2023-02-22T11:58:15.139Z,3.03
2023-02-22T12:01:07.345Z,3.08
2023-02-22T12:03:35.686Z,3.11
2023-02-22T12:06:10.000Z,3.08
2023-02-22T12:08:41.334Z,3.03
2023-02-22T12:11:18.520Z,3.01
2023-02-22T12:14:06.203Z,3.03
2023-02-22T12:16:38.102Z,3.07
2023-02-22T12:19:28.085Z,3.10
2023-02-22T12:21:58.311Z,3.13
2023-02-22T12:24:27.808Z,3.16
2023-02-22T12:27:16.414Z,3.22
2023-02-22T12:30:05.854Z,3.28
2023-02-22T12:32:41.827Z,3.33
2023-02-22T12:35:30.765Z,3.36
2023-02-22T12:37:59.857Z,3.38
2023-02-22T12:40:54.608Z,3.37
2023-02-22T12:43:44.954Z,3.35
2023-02-22T12:46:16.375Z,3.34
2023-02-22T12:48:49.570Z,3.38
2023-02-22T12:51:32.283Z,3.40
2023-02-22T12:54:14.323Z,3.44
2023-02-22T12:56:49.340Z,3.43
2023-02-22T12:59:19.977Z,3.38
2023-02-22T13:01:55.429Z,3.31
2023-02-22T13:04:23.617Z,3.27
2023-02-22T13:07:00.840Z,3.26
2023-02-22T13:09:30.084Z,3.27
2023-02-22T13:12:18.671Z,3.24
2023-02-22T13:14:53.012Z,3.20
2023-02-22T13:17:37.039Z,3.17
2023-02-22T13:20:16.080Z,3.19
2023-02-22T13:22:47.941Z,3.16
2023-02-22T13:25:25.427Z,3.11
2023-02-22T13:28:23.437Z,3.08
2023-02-22T13:30:52.349Z,3.04
2023-02-22T13:33:39.610Z,3.00
2023-02-22T13:36:07.877Z,2.96
2023-02-22T13:38:42.181Z,2.92
2023-02-22T13:41:17.050Z,2.94
2023-02-22T13:43:51.396Z,2.96
2023-02-22T13:46:55.243Z,2.98
2023-02-22T13:49:35.650Z,3.04
2023-02-22T13:52:07.069Z,3.07
2023-02-22T13:54:38.562Z,3.10
2023-02-22T13:57:33.501Z,3.08
2023-02-22T14:00:21.114Z,3.08
2023-02-22T14:03:01.872Z,3.06
2023-02-22T14:05:57.678Z,3.07
2023-02-22T14:08:28.097Z,3.10
2023-02-22T14:11:14.163Z,3.12
2023-02-22T14:13:58.134Z,3.18
2023-02-22T14:16:27.599Z,3.22
2023-02-22T14:19:02.580Z,3.23
2023-02-22T14:21:31.085Z,3.22
2023-02-22T14:24:06.959Z,3.21
2023-02-22T14:26:36.092Z,3.15
2023-02-22T14:29:10.419Z,3.09
2023-02-22T14:31:46.612Z,3.06
2023-02-22T14:34:15.463Z,3.01
2023-02-22T14:37:02.187Z,2.99
2023-02-22T14:39:32.250Z,2.97
2023-02-22T14:42:19.620Z,2.95
2023-02-22T14:44:49.001Z,2.94
2023-02-22T14:47:22.072Z,2.96
2023-02-22T14:49:51.081Z,2.97
2023-02-22T14:52:28.944Z,2.96
2023-02-22T14:55:12.736Z,2.93
2023-02-22T14:58:01.814Z,2.92
2023-02-22T15:00:43.277Z,2.87
2023-02-22T15:03:37.463Z,2.83
2023-02-22T15:10:24.093Z,2.70
2023-02-22T15:13:12.755Z,2.66
2023-02-22T15:15:47.526Z,2.64
2023-02-22T15:18:30.258Z,2.61
2023-02-22T15:20:58.928Z,2.57
2023-02-22T15:23:30.409Z,2.58
2023-02-22T15:26:00.075Z,2.59
2023-02-22T15:28:29.315Z,2.57
2023-02-22T15:31:17.003Z,2.54
2023-02-22T15:33:47.141Z,2.53
2023-02-22T15:36:16.858Z,2.52
2023-02-22T15:38:52.043Z,2.51
2023-02-22T15:41:27.997Z,2.51
2023-02-22T15:44:01.800Z,2.49
2023-02-22T15:46:31.935Z,2.47
2023-02-22T15:49:04.129Z,2.48
2023-02-22T15:51:33.075Z,2.49
2023-02-22T15:54:07.904Z,2.53
2023-02-22T15:56:38.027Z,2.56
2023-02-22T15:59:08.713Z,2.58
2023-02-22T16:01:38.451Z,2.59
2023-02-22T16:04:07.935Z,2.60
2023-02-22T16:06:37.245Z,2.60
2023-02-22T16:09:29.656Z,2.60
2023-02-22T16:12:09.649Z,2.59
2023-02-22T16:14:37.996Z,2.57
2023-02-22T16:17:13.379Z,2.56
2023-02-22T16:19:42.799Z,2.56
2023-02-22T16:22:26.979Z,2.55
2023-02-22T16:24:55.202Z,2.53
2023-02-22T16:27:24.226Z,2.52
2023-02-22T16:30:23.231Z,2.52
2023-02-22T16:32:54.927Z,2.51
2023-02-22T16:35:28.932Z,2.51
2023-02-22T16:37:58.552Z,2.50
2023-02-22T16:40:34.600Z,2.49
2023-02-22T16:43:12.766Z,2.48
2023-02-22T16:45:42.590Z,2.48
2023-02-22T16:48:17.354Z,2.46
2023-02-22T16:50:45.854Z,2.41
2023-02-22T16:53:13.959Z,2.39
2023-02-22T16:55:44.805Z,2.39
2023-02-22T16:58:17.315Z,2.38
2023-02-22T17:01:12.769Z,2.34
2023-02-22T17:03:42.627Z,2.31
2023-02-22T17:06:10.913Z,2.30
2023-02-22T17:08:45.226Z,2.31
2023-02-22T17:11:15.996Z,2.32
2023-02-22T17:13:45.865Z,2.35
2023-02-22T17:16:40.908Z,2.36
2023-02-22T17:19:11.281Z,2.35
2023-02-22T17:21:41.177Z,2.30
2023-02-22T17:24:13.992Z,2.22
2023-02-22T17:26:42.668Z,2.16
2023-02-22T17:29:11.018Z,2.14
2023-02-22T17:31:39.447Z,2.14
2023-02-22T17:34:08.101Z,2.13
2023-02-22T17:36:36.654Z,2.14
2023-02-22T17:39:05.065Z,2.10
2023-02-22T17:41:33.811Z,2.07
2023-02-22T17:44:02.047Z,2.08
2023-02-22T17:46:31.052Z,2.09
2023-02-22T17:48:59.459Z,2.09
2023-02-22T17:51:27.777Z,2.06
2023-02-22T17:53:56.008Z,2.05
2023-02-22T17:56:24.571Z,2.04
2023-02-22T17:58:53.780Z,2.00
2023-02-22T18:01:24.612Z,1.98
2023-02-22T18:03:54.658Z,1.97
2023-02-22T18:06:25.153Z,1.98
2023-02-22T18:08:56.202Z,2.00
2023-02-22T18:11:28.282Z,2.01
2023-02-22T18:13:57.211Z,2.02
2023-02-22T18:16:28.836Z,2.04
2023-02-22T18:18:56.998Z,2.06
2023-02-22T18:21:26.985Z,2.03
2023-02-22T18:23:55.340Z,2.00
2023-02-22T18:26:23.732Z,1.98
2023-02-22T18:28:53.744Z,1.96
2023-02-22T18:31:22.297Z,1.94
2023-02-22T18:33:50.927Z,1.91
2023-02-22T18:36:23.590Z,1.89
2023-02-22T18:38:53.179Z,1.85
2023-02-22T18:41:26.024Z,1.82
2023-02-22T18:43:55.658Z,1.78
2023-02-22T18:46:25.968Z,1.73
2023-02-22T18:48:55.008Z,1.71
2023-02-22T18:51:23.744Z,1.70
2023-02-22T18:53:57.012Z,1.68
2023-02-22T18:56:29.803Z,1.66
2023-02-22T18:58:59.690Z,1.67
2023-02-22T19:01:28.209Z,1.67
2023-02-22T19:03:56.928Z,1.66
2023-02-22T19:06:25.190Z,1.65
2023-02-22T19:08:56.110Z,1.63
2023-02-22T19:11:25.153Z,1.61
2023-02-22T19:13:56.032Z,1.58
2023-02-22T19:16:25.797Z,1.58
2023-02-22T19:18:57.641Z,1.56
2023-02-22T19:21:26.938Z,1.55
2023-02-22T19:24:01.649Z,1.49
2023-02-22T19:26:30.430Z,1.44
2023-02-22T19:28:59.854Z,1.45
2023-02-22T19:31:34.015Z,1.45
2023-02-22T19:34:04.441Z,1.44
2023-02-22T19:36:32.701Z,1.43
2023-02-22T19:39:02.142Z,1.40
2023-02-22T19:41:30.945Z,1.35
2023-02-22T19:43:59.420Z,1.30
2023-02-22T19:46:28.451Z,1.27
2023-02-22T19:48:56.693Z,1.28
2023-02-22T19:51:29.165Z,1.26
2023-02-22T19:54:02.600Z,1.26
2023-02-22T19:56:31.522Z,1.30
2023-02-22T19:59:00.785Z,1.36
2023-02-22T20:01:30.278Z,1.41
2023-02-22T20:04:03.999Z,1.44
2023-02-22T20:06:34.793Z,1.43
2023-02-22T20:09:03.500Z,1.38
2023-02-22T20:11:32.380Z,1.32
2023-02-22T20:17:50.446Z,1.23
2023-02-22T20:20:19.114Z,1.15
2023-02-22T20:22:47.934Z,1.09
2023-02-22T20:25:16.764Z,1.08
2023-02-22T20:27:46.868Z,1.09
2023-02-22T20:30:18.265Z,1.11
2023-02-22T20:32:46.877Z,1.12
2023-02-22T20:35:16.539Z,1.10
2023-02-22T20:37:45.041Z,1.07
2023-02-22T20:40:13.725Z,1.04
2023-02-22T20:42:44.881Z,1.02
2023-02-22T20:45:16.421Z,1.02
2023-02-22T20:47:45.319Z,1.00
2023-02-22T20:50:13.475Z,0.99
2023-02-22T20:52:41.705Z,0.97
2023-02-22T20:55:11.624Z,0.92
2023-02-22T20:57:40.223Z,0.90
2023-02-22T21:00:10.794Z,0.87
2023-02-22T21:02:39.486Z,0.85
2023-02-22T21:05:07.792Z,0.82
2023-02-22T21:07:36.112Z,0.79
2023-02-22T21:10:06.691Z,0.76
2023-02-22T21:12:35.555Z,0.74
2023-02-22T21:15:04.034Z,0.77
2023-02-22T21:17:32.859Z,0.77
2023-02-22T21:20:04.812Z,0.75
2023-02-22T21:22:33.095Z,0.76
2023-02-22T21:25:01.547Z,0.75
2023-02-22T21:27:32.615Z,0.75
2023-02-22T21:30:00.941Z,0.77
2023-02-22T21:32:29.516Z,0.84
2023-02-22T21:34:57.881Z,0.88
2023-02-22T21:37:26.403Z,0.89
2023-02-22T21:39:54.693Z,0.91
2023-02-22T21:42:22.866Z,0.89
2023-02-22T21:44:56.114Z,0.86
2023-02-22T21:47:24.594Z,0.87
2023-02-22T21:49:53.157Z,0.92
2023-02-22T21:52:22.017Z,0.96
2023-02-22T21:54:51.141Z,1.00
2023-02-22T21:57:19.407Z,0.97
2023-02-22T21:59:48.616Z,0.94
2023-02-22T22:02:16.960Z,0.94
2023-02-22T22:04:46.073Z,0.94
2023-02-22T22:07:17.971Z,0.93
2023-02-22T22:09:48.272Z,0.93
2023-02-22T22:12:25.955Z,0.94
2023-02-22T22:14:56.436Z,0.97
2023-02-22T22:17:25.305Z,1.01
2023-02-22T22:23:44.660Z,1.10
2023-02-22T22:26:55.468Z,1.10
2023-02-22T22:29:49.158Z,1.09
2023-02-22T22:32:20.732Z,1.12
2023-02-22T22:34:59.337Z,1.10
2023-02-22T22:37:31.159Z,1.07
2023-02-22T22:39:59.581Z,1.07
2023-02-22T22:42:28.232Z,1.07
2023-02-22T22:44:57.089Z,1.04
2023-02-22T22:47:25.345Z,1.00
2023-02-22T22:50:01.504Z,0.98
2023-02-22T22:52:34.022Z,0.99
2023-02-22T22:55:03.588Z,0.97
2023-02-22T22:57:32.174Z,0.96
2023-02-22T23:00:00.626Z,0.93
2023-02-22T23:02:30.691Z,0.88
2023-02-22T23:04:58.888Z,0.79
2023-02-22T23:07:27.044Z,0.66
2023-02-22T23:09:56.590Z,0.61
2023-02-22T23:12:31.612Z,0.58
2023-02-22T23:15:00.203Z,0.58
2023-02-22T23:17:36.948Z,0.57
2023-02-22T23:20:11.206Z,0.53
2023-02-22T23:22:40.677Z,0.52
2023-02-22T23:25:10.192Z,0.53
2023-02-22T23:27:38.743Z,0.57
2023-02-22T23:30:07.600Z,0.56
2023-02-22T23:32:36.197Z,0.55
2023-02-22T23:35:04.697Z,0.56
2023-02-22T23:37:35.564Z,0.57
2023-02-22T23:40:05.734Z,0.59
2023-02-22T23:42:34.079Z,0.62
2023-02-22T23:45:02.429Z,0.62
2023-02-22T23:47:36.509Z,0.61
2023-02-22T23:50:13.530Z,0.61
2023-02-22T23:52:46.524Z,0.62
2023-02-22T23:55:14.710Z,0.59
2023-02-22T23:57:43.344Z,0.58
